Tyndall Air Force Base
KPAM : now visible

Airfield :











YOU CAN JOIN US ON...

 
LOGIN :

Register | Disclaimer

   EN    FR    IT 

 









Legend :    VFR   Marginal VFR   IFR   Intensive IFR   Very Intensive IFR
Visi :
Ceiling :
>= 8 km
>= 3000ft
5 to 8 km
1000 to 3000 ft
1500m to 5 km
500 to 1000 ft
800 to 1500m
200 to 500 ft
< 800m
< 200 ft
Symbols :   Thunderstorms  Fog  Heavy snow  Heavy precipitations  Wind > 20 kt






- Airport Elevation : 17 ft


KPAM - Tyndall Air Force Base

CURRENT METAR :
  • 192256Z AUTO 26004KT 10SM CLR 17/10 A2997 RMK AO2 SLP152 T01680095 $

EXPIRED METARs :
  • 192156Z AUTO 26007KT 10SM CLR 19/08 A2996 RMK AO2 SLP149 T01880082 $
  • 192056Z AUTO 27007KT 10SM CLR 19/07 A2996 RMK AO2 SLP149 T01930074 55005 $

TAF AMD TAF KPAM
Valid from the 19 at 22:00 until the 21 at 01:00 UTC


192225Z 1922/2101 26006KT 9999 SKC QNH2996INS WND 32003KT AFT 2006 TX20/2020Z TN14/2011Z LAST NO AMDS AFT 1923 NEXT 2011



MET'MAP, your aeronautical weather chart ! - Copyright ORBIFLY December 2007 - Disclaimer

ORBIFLY MET'MAP TEAM :

Programming & Development : Alexandra Zaïnal
Concept & Development : Baudouin d'Aumeries
Co-Development & Prog : Marc-Olivier Méhu
Technical & hardware support : Manuel Goepfert

Contact : metmap@orbifly.com




SOURCES & CREDITS :

   NOAA       Earth
Advisory